createdAt,value
2016-04-14T14:47:01.795Z,46.2
2016-04-14T14:47:11.795Z,46.3
2016-04-14T14:47:21.779Z,46.3
2016-04-14T14:47:31.764Z,46.4
2016-04-14T14:47:41.748Z,46.4
2016-04-14T14:47:51.732Z,46.4
2016-04-14T14:48:01.720Z,46.6
2016-04-14T14:48:11.704Z,46.5
2016-04-14T14:48:21.688Z,46.4
2016-04-14T14:48:31.688Z,46.6
2016-04-14T14:48:41.673Z,46.5
2016-04-14T14:48:51.657Z,46.1
2016-04-14T14:49:01.645Z,46.6
2016-04-14T14:49:11.629Z,46.4
2016-04-14T14:49:21.613Z,46.4
2016-04-14T14:49:31.598Z,46.5
2016-04-14T14:49:41.598Z,46.1
2016-04-14T14:49:51.582Z,46.4
2016-04-14T14:50:01.569Z,45.9
2016-04-14T14:50:11.554Z,46.3
2016-04-14T14:50:21.538Z,46.4
2016-04-14T14:50:31.538Z,46.1
2016-04-14T14:50:41.523Z,45.9
2016-04-14T14:50:51.507Z,46
2016-04-14T14:51:01.493Z,46.3
2016-04-14T14:51:11.478Z,46.2
2016-04-14T14:51:21.462Z,46.4
2016-04-14T14:51:31.446Z,46.5
2016-04-14T14:51:41.446Z,46.2
2016-04-14T14:51:51.431Z,46.5
2016-04-14T15:02:44.398Z,47.7
2016-04-14T15:02:54.383Z,47.3
2016-04-14T15:03:04.370Z,47.4
2016-04-14T15:03:14.354Z,47.5
2016-04-14T15:03:24.354Z,47.5
2016-04-14T15:03:34.339Z,47.8
2016-04-14T15:03:44.323Z,47
2016-04-14T15:03:54.308Z,46.4
2016-04-14T15:04:04.294Z,46.6
2016-04-14T15:04:14.294Z,46.1
2016-04-14T15:04:24.263Z,46.3
2016-04-14T15:04:34.247Z,46.1
2016-04-14T15:04:44.247Z,45.9
2016-04-14T15:04:54.231Z,46.1
2016-04-14T15:05:04.219Z,46.1
2016-04-14T15:05:14.203Z,46.2
2016-04-14T15:05:24.188Z,46.3
2016-04-14T15:05:34.188Z,46.3
2016-04-14T15:05:44.172Z,46.6
2016-04-14T15:05:54.156Z,46.6
2016-04-14T15:06:04.144Z,46
2016-04-14T15:06:14.128Z,45.7
2016-04-14T15:06:24.128Z,45.4
2016-04-14T15:06:34.112Z,45.2
2016-04-14T15:06:44.097Z,45.2
2016-04-14T15:06:54.081Z,44.9
2016-04-14T15:07:04.069Z,45.4
2016-04-14T15:07:14.053Z,45.1
2016-04-14T15:07:24.053Z,45.1
2016-04-14T15:07:34.037Z,45.3
2016-04-14T15:07:44.022Z,45.3
2016-04-14T15:07:54.006Z,45.3
2016-04-14T15:08:03.993Z,45.3
2016-04-14T15:08:13.993Z,45.4
2016-04-14T15:08:23.978Z,45.5
2016-04-14T15:08:33.962Z,45.3
2016-04-14T15:08:43.962Z,45.5
2016-04-14T15:08:53.931Z,45.1
2016-04-14T15:09:03.934Z,45.2
2016-04-14T15:09:13.918Z,44.8
2016-04-14T15:09:23.903Z,44.8
2016-04-14T15:09:33.887Z,44.8
2016-04-14T15:09:43.871Z,44.9
2016-04-14T15:09:53.871Z,44.9
2016-04-14T15:10:03.858Z,45.1
2016-04-14T15:10:13.842Z,45
2016-04-14T15:10:23.827Z,45
2016-04-14T15:10:33.811Z,45.2
2016-04-14T15:10:43.811Z,45
2016-04-14T15:10:53.795Z,45.4
2016-04-14T15:11:03.783Z,45.5
2016-04-14T15:11:13.767Z,45.8
2016-04-14T15:11:23.767Z,45.7
2016-04-14T15:11:33.751Z,45.8
2016-04-14T15:11:43.736Z,45.9
2016-04-14T15:11:53.720Z,46.2
2016-04-14T15:12:03.707Z,46.3
2016-04-14T15:12:13.707Z,45.9
2016-04-14T15:12:23.691Z,46.2
2016-04-14T15:12:33.675Z,46.1
2016-04-14T15:12:43.660Z,45.8
2016-04-14T15:12:53.660Z,45.7
2016-04-14T15:13:03.663Z,45.7
2016-04-14T15:13:13.725Z,45.8
2016-04-14T15:13:23.616Z,45.5
2016-04-14T15:13:33.600Z,45.4
2016-04-14T15:13:43.600Z,45.3
2016-04-14T15:13:53.585Z,45.2
2016-04-14T15:14:03.571Z,44.9
2016-04-14T15:14:13.571Z,45.1
2016-04-14T15:14:23.555Z,45.1
2016-04-14T15:14:33.540Z,45.3
2016-04-14T15:14:43.524Z,45.2
2016-04-14T15:14:53.524Z,45.1
2016-04-14T15:15:03.511Z,44.9
2016-04-14T15:15:13.496Z,45
2016-04-14T15:15:23.480Z,45.1
2016-04-14T15:15:33.465Z,45.1
2016-04-14T15:15:43.449Z,45
2016-04-14T15:15:53.449Z,45
2016-04-14T15:16:03.436Z,45
2016-04-14T15:16:13.421Z,45
2016-04-14T15:16:23.405Z,45
2016-04-14T15:16:33.405Z,45.1
2016-04-14T15:16:43.389Z,45.3
2016-04-14T15:16:53.374Z,45
2016-04-14T15:17:03.360Z,45.3
2016-04-14T15:17:13.360Z,45.3
2016-04-14T15:17:23.345Z,45.1
2016-04-14T15:17:33.329Z,45.3
2016-04-14T15:17:43.313Z,45
2016-04-14T15:17:53.313Z,45
2016-04-14T15:18:03.302Z,45.1
2016-04-14T15:18:13.286Z,44.8
2016-04-14T15:18:23.270Z,44.7
2016-04-14T15:18:33.270Z,44.8
2016-04-14T15:18:43.255Z,44.5
2016-04-14T15:18:53.239Z,44.5
2016-04-14T15:19:03.226Z,44.1
2016-04-14T15:19:13.226Z,43.9
2016-04-14T15:19:23.210Z,43.9
2016-04-14T15:19:33.194Z,44.1
2016-04-14T15:19:43.179Z,44
2016-04-14T15:19:53.163Z,43.9
2016-04-14T15:20:03.166Z,44.1
2016-04-14T15:20:13.150Z,43.9
2016-04-14T15:20:23.135Z,43.7
2016-04-14T15:20:33.135Z,43.6
2016-04-14T15:20:43.119Z,43.4
2016-04-14T15:20:53.119Z,43.3
2016-04-14T15:21:03.106Z,42.9
2016-04-14T15:21:13.074Z,43.2
2016-04-14T15:21:23.074Z,42.6
2016-04-14T15:21:33.465Z,43.1
2016-04-14T15:21:43.043Z,42.7
2016-04-14T15:21:53.043Z,42.7
2016-04-14T15:22:03.030Z,42.9
2016-04-14T15:22:13.015Z,42.5
2016-04-14T15:22:22.999Z,42.3
2016-04-14T15:22:32.999Z,42.5
2016-04-14T15:22:42.984Z,43
2016-04-14T15:22:52.968Z,42.2
2016-04-14T15:23:02.955Z,42.2
2016-04-14T15:23:12.955Z,42.1
2016-04-14T15:23:22.940Z,42
2016-04-14T15:23:32.924Z,42.3
2016-04-14T15:23:42.908Z,42.1
2016-04-14T15:23:52.908Z,42.2
2016-04-14T15:24:02.896Z,42.1
2016-04-14T15:24:12.896Z,42.3
2016-04-14T15:24:22.865Z,42.3
2016-04-14T15:24:33.583Z,42
2016-04-14T15:24:43.286Z,42.1
2016-04-14T15:24:53.302Z,42.2
2016-04-14T15:25:03.320Z,42.3
2016-04-14T15:25:12.820Z,42.6
2016-04-14T15:25:22.804Z,42.3
2016-04-14T15:25:32.788Z,42.3
2016-04-14T15:25:42.788Z,42.3
2016-04-14T15:25:52.773Z,42.3
2016-04-14T15:26:02.760Z,42.2
2016-04-14T15:26:12.760Z,42.2
2016-04-14T15:26:22.745Z,42.2
2016-04-14T15:26:32.729Z,42.1
2016-04-14T15:26:42.713Z,42.3
2016-04-14T15:26:52.713Z,42.2
2016-04-14T15:27:02.701Z,42.7
2016-04-14T15:27:12.685Z,42.6
2016-04-14T15:27:22.669Z,42.8
2016-04-14T15:27:32.669Z,42.6
2016-04-14T15:27:42.654Z,42.6
2016-04-14T15:27:52.638Z,42.9
2016-04-14T15:28:02.640Z,42.5
2016-04-14T15:28:12.625Z,42.6
2016-04-14T15:28:22.609Z,42.3
2016-04-14T15:28:32.593Z,42
2016-04-14T15:28:42.593Z,42.1
2016-04-14T15:28:52.578Z,41.8
2016-04-14T15:29:02.565Z,41.5
2016-04-14T15:29:12.549Z,41.4
2016-04-14T15:29:22.534Z,41.4
2016-04-14T15:29:32.534Z,41.4
2016-04-14T15:29:42.518Z,41.4
2016-04-14T15:29:52.503Z,41.2
2016-04-14T15:30:02.505Z,41.2
2016-04-14T15:30:12.489Z,41.3
2016-04-14T15:30:22.473Z,41.3
2016-04-14T15:30:32.458Z,41.2
2016-04-14T15:30:42.458Z,41.5
2016-04-14T15:30:52.442Z,41.5
2016-04-14T15:31:02.445Z,41.5
2016-04-14T15:31:12.429Z,41.8
2016-04-14T15:31:22.414Z,41.8
2016-04-14T15:31:32.398Z,41.7
2016-04-14T15:31:42.383Z,41.6
2016-04-14T15:31:53.383Z,41.7
2016-04-14T15:32:03.089Z,41.7
2016-04-14T15:32:13.042Z,41.7
2016-04-14T15:32:22.917Z,41.8
2016-04-14T15:32:32.339Z,41.9
2016-04-14T15:32:42.323Z,42.2
2016-04-14T15:32:52.323Z,42.3
2016-04-14T15:33:02.310Z,42
2016-04-14T15:33:12.295Z,42.4
2016-04-14T15:33:22.279Z,42.2
2016-04-14T15:33:32.264Z,41.9
2016-04-14T15:33:42.264Z,42
2016-04-14T15:33:52.248Z,42.1
2016-04-14T15:34:02.235Z,42.1
2016-04-14T15:34:12.235Z,42
2016-04-14T15:34:22.220Z,42.2
2016-04-14T15:34:32.204Z,42.4
2016-04-14T15:34:42.188Z,42.2
2016-04-14T15:34:52.188Z,42.3
2016-04-14T15:35:02.175Z,42.3
2016-04-14T15:35:12.175Z,42.3
2016-04-14T15:35:22.159Z,42.5
2016-04-14T15:35:32.159Z,42.6
2016-04-14T15:35:42.144Z,42.8
2016-04-14T15:35:52.112Z,43.3
2016-04-14T15:36:02.115Z,43.3
2016-04-14T15:36:12.100Z,43.5
2016-04-14T15:36:22.084Z,43.7
2016-04-14T15:36:32.084Z,44.1
2016-04-14T15:36:42.068Z,44.1
2016-04-14T15:36:52.053Z,44.2
2016-04-14T15:37:02.039Z,44.2
2016-04-14T15:37:12.039Z,44.3
2016-04-14T15:37:22.024Z,44.1
2016-04-14T15:37:32.008Z,44.3
2016-04-14T15:37:42.008Z,44.2
2016-04-14T15:37:51.992Z,44.5
2016-04-14T15:38:01.980Z,44.5
2016-04-14T15:38:11.980Z,44.5
2016-04-14T15:38:21.964Z,44.6
2016-04-14T15:38:31.948Z,44.8
2016-04-14T15:38:41.948Z,44.8
2016-04-14T15:38:51.917Z,44.8
2016-04-14T15:39:01.920Z,44.7
2016-04-14T15:39:11.905Z,44.7
2016-04-14T15:39:21.889Z,44.4
2016-04-14T15:39:31.889Z,44.5
2016-04-14T15:39:41.873Z,44.3
2016-04-14T15:39:51.858Z,44.4
2016-04-14T15:40:01.845Z,44.3
2016-04-14T15:40:11.845Z,44
2016-04-14T15:40:21.829Z,44
2016-04-14T15:40:31.814Z,43.8
2016-04-14T15:40:41.814Z,43.8
2016-04-14T15:40:51.798Z,43.7
2016-04-14T15:41:01.785Z,43.6
2016-04-14T15:41:11.785Z,43.5
2016-04-14T15:41:21.769Z,43.5
2016-04-14T15:41:31.753Z,43.5
2016-04-14T15:41:41.753Z,43.7
2016-04-14T15:41:51.738Z,43.7
2016-04-14T15:42:01.725Z,43.6
2016-04-14T15:42:11.709Z,43.5
2016-04-14T15:42:21.709Z,43.5
2016-04-14T15:42:31.694Z,43.8
2016-04-14T15:42:41.678Z,43.7
2016-04-14T15:42:51.663Z,43.6
2016-04-14T15:43:01.711Z,43.6
2016-04-14T15:43:11.649Z,43.8
2016-04-14T15:43:21.758Z,44.1
2016-04-14T15:43:31.665Z,44.3
2016-04-14T15:43:41.618Z,44.5
2016-04-14T15:43:51.602Z,44.5
2016-04-14T15:44:01.589Z,44.5
2016-04-14T15:44:11.589Z,44.5
2016-04-14T15:44:21.574Z,44.5
2016-04-14T15:44:31.558Z,44.6
2016-04-14T15:44:41.543Z,44.5
2016-04-14T15:44:51.543Z,44.5
2016-04-14T15:45:01.546Z,44.6
2016-04-14T15:45:11.514Z,44.7
2016-04-14T15:45:21.514Z,44.8
2016-04-14T15:45:31.499Z,44.6
2016-04-14T15:45:41.483Z,44.6
2016-04-14T15:45:51.483Z,44.5
2016-04-14T15:46:01.470Z,44.5
2016-04-14T15:46:11.455Z,44.6
2016-04-14T15:46:21.439Z,44.7
2016-04-14T15:46:31.439Z,44.5
2016-04-14T15:46:41.424Z,44.7
2016-04-14T15:46:51.408Z,44.6
2016-04-14T15:47:01.394Z,44.6
2016-04-14T15:47:11.394Z,44.6
2016-04-14T15:47:21.379Z,44.5
2016-04-14T15:47:31.363Z,44.5
2016-04-14T15:47:41.363Z,44.4
2016-04-14T15:47:51.347Z,44.3
2016-04-14T15:48:01.335Z,44.3
2016-04-14T15:48:11.335Z,44
2016-04-14T15:48:21.319Z,44
2016-04-14T15:48:31.304Z,44
2016-04-14T15:48:41.288Z,43.7
2016-04-14T15:48:51.288Z,43.6
2016-04-14T15:49:01.275Z,43.8
2016-04-14T15:49:11.260Z,43.6
2016-04-14T15:49:21.260Z,43.5
2016-04-14T15:49:31.244Z,43.5
2016-04-14T15:49:41.228Z,43.7
2016-04-14T15:49:51.213Z,43.6
2016-04-14T15:50:01.591Z,43.5
2016-04-14T15:50:11.200Z,43.7
2016-04-14T15:50:21.325Z,43.5
2016-04-14T15:50:31.185Z,43.2
2016-04-14T15:50:41.700Z,43.2
2016-04-14T15:50:51.153Z,43.3
2016-04-14T15:51:01.156Z,43.1
2016-04-14T15:51:11.141Z,43.4
2016-04-14T15:51:21.125Z,43.1
2016-04-14T15:51:31.109Z,43.1
2016-04-14T15:51:41.109Z,43
2016-04-14T15:51:51.234Z,43.2
2016-04-14T15:52:01.205Z,42.8
2016-04-14T15:52:11.205Z,42.7
2016-04-14T15:52:21.252Z,42.5
2016-04-14T15:52:31.158Z,42.4
2016-04-14T15:52:41.471Z,42.2
2016-04-14T15:52:51.033Z,42.4
2016-04-14T15:53:01.021Z,42.4
2016-04-14T15:53:11.021Z,42.2
2016-04-14T15:53:21.005Z,42.2
2016-04-14T15:53:30.989Z,42.2
2016-04-14T15:53:41.021Z,42.2
2016-04-14T15:53:50.974Z,42.3
2016-04-14T15:54:00.960Z,42.4
2016-04-14T15:54:10.960Z,42.2
2016-04-14T15:54:20.929Z,41.9
2016-04-14T15:54:30.929Z,41.8
2016-04-14T15:54:40.913Z,41.5
2016-04-14T15:54:50.898Z,41.6
2016-04-14T15:55:00.901Z,41.6
2016-04-14T15:55:10.885Z,41.5
2016-04-14T15:55:20.869Z,41.4
2016-04-14T15:55:30.869Z,41.5
2016-04-14T15:55:40.854Z,41.6
2016-04-14T15:55:50.838Z,41.3
2016-04-14T15:56:00.825Z,41.4
2016-04-14T15:56:10.825Z,41.4
2016-04-14T15:56:20.809Z,41.5
2016-04-14T15:56:30.793Z,41.5
2016-04-14T15:56:40.793Z,41.4
2016-04-14T15:56:50.778Z,41.5
2016-04-14T15:57:00.765Z,41.6
2016-04-14T15:57:10.749Z,41.4
2016-04-14T15:57:20.749Z,40.8
2016-04-14T15:57:30.734Z,40.8
2016-04-14T15:57:40.906Z,41.1
2016-04-14T15:57:50.718Z,40.9
2016-04-14T15:58:00.706Z,41
2016-04-14T15:58:10.752Z,41.1
2016-04-14T15:58:20.674Z,40.7
2016-04-14T15:58:30.674Z,40.8
2016-04-14T15:58:40.659Z,40.7
2016-04-14T15:58:50.643Z,40.6
2016-04-14T15:59:00.646Z,40.7
2016-04-14T15:59:10.630Z,40.7
2016-04-14T15:59:20.615Z,40.4
2016-04-14T15:59:30.615Z,40.5
2016-04-14T15:59:40.599Z,40.5
2016-04-14T15:59:50.584Z,40.5
2016-04-14T16:00:00.571Z,40.5
2016-04-14T16:00:10.571Z,40.4
2016-04-14T16:00:20.555Z,40.5
2016-04-14T16:00:30.540Z,40.5
2016-04-14T16:00:40.540Z,40.1
2016-04-14T16:00:50.524Z,40.1
2016-04-14T16:01:00.510Z,40
2016-04-14T16:01:10.510Z,39.9
2016-04-14T16:01:20.495Z,40
2016-04-14T16:01:30.479Z,39.9
2016-04-14T16:01:40.464Z,39.8
2016-04-14T16:01:50.464Z,39.5
2016-04-14T16:02:00.451Z,39.5
2016-04-14T16:02:10.451Z,39.4
2016-04-14T16:02:20.435Z,38.9
2016-04-14T16:02:30.420Z,39.2
2016-04-14T16:02:40.404Z,39
2016-04-14T16:02:50.404Z,38.6
2016-04-14T16:03:00.390Z,39
2016-04-14T16:03:10.375Z,38.7
2016-04-14T16:03:20.359Z,38.5
2016-04-14T16:03:30.359Z,38.4
2016-04-14T16:03:40.344Z,38.3
2016-04-14T16:03:50.328Z,38.2
2016-04-14T16:04:00.440Z,38.1
2016-04-14T16:04:10.440Z,37.7
2016-04-14T16:04:20.425Z,37.9
2016-04-14T16:04:30.300Z,37.9
2016-04-14T16:04:40.393Z,37.9
2016-04-14T16:04:50.440Z,37.8
2016-04-14T16:05:00.271Z,38.1
2016-04-14T16:05:10.256Z,38
2016-04-14T16:05:20.240Z,38
2016-04-14T16:05:30.240Z,38
2016-04-14T16:05:40.225Z,38.1
2016-04-14T16:05:50.209Z,37.9
2016-04-14T16:06:00.211Z,37.6
2016-04-14T16:06:10.195Z,37.8
2016-04-14T16:06:20.180Z,37.8
2016-04-14T16:06:30.164Z,37.5
2016-04-14T16:06:40.164Z,37.3
2016-04-14T16:06:50.148Z,37.3
2016-04-14T16:07:00.136Z,36.8
2016-04-14T16:07:10.136Z,37
2016-04-14T16:07:20.120Z,36.6
2016-04-14T16:07:30.105Z,36.3
2016-04-14T16:07:40.105Z,36.2
2016-04-14T16:07:50.089Z,36.3
2016-04-14T16:08:00.075Z,36.2
2016-04-14T16:08:10.060Z,36.3
2016-04-14T16:08:20.388Z,36.1
2016-04-14T16:08:30.044Z,35.8
2016-04-14T16:08:40.028Z,35.3
2016-04-14T16:08:50.028Z,35.3
2016-04-14T16:09:00.016Z,35.3
2016-04-14T16:09:10.000Z,35.3
2016-04-14T16:09:20.000Z,35.3
2016-04-14T16:09:29.985Z,35.1
2016-04-14T16:09:39.969Z,35.2
2016-04-14T16:09:49.969Z,35.2
2016-04-14T16:09:59.956Z,35.1
2016-04-14T16:10:09.941Z,35.1
2016-04-14T16:10:19.941Z,35.2
2016-04-14T16:10:29.925Z,34.8
2016-04-14T16:10:39.909Z,34.9
2016-04-14T16:10:49.909Z,34.9
2016-04-14T16:10:59.897Z,34.6
2016-04-14T16:11:09.881Z,34.7
2016-04-14T16:11:19.866Z,34.4
2016-04-14T16:11:29.866Z,33.9
2016-04-14T16:11:39.850Z,34
2016-04-14T16:11:49.834Z,33.9
2016-04-14T16:11:59.837Z,33.9
2016-04-14T16:12:09.822Z,34.4
2016-04-14T16:12:19.806Z,34.7
2016-04-14T16:12:29.806Z,35
2016-04-14T16:12:39.790Z,34.7
2016-04-14T16:12:49.775Z,34.7
2016-04-14T16:12:59.886Z,34.7
2016-04-14T16:13:09.824Z,35.2
2016-04-14T16:13:19.761Z,35.2
2016-04-14T16:13:29.730Z,35
2016-04-14T16:13:39.730Z,35.3
2016-04-14T16:13:49.714Z,35.7
2016-04-14T16:13:59.717Z,35.9
2016-04-14T16:14:09.702Z,35.9
2016-04-14T16:14:19.686Z,36
2016-04-14T16:14:29.686Z,36.5
2016-04-14T16:14:39.670Z,36.8
2016-04-14T16:14:49.655Z,36.8
2016-04-14T16:14:59.641Z,37.5
2016-04-14T16:15:09.641Z,37.5
2016-04-14T16:15:19.626Z,38
2016-04-14T16:15:29.610Z,38.1
2016-04-14T16:15:39.610Z,38.5
2016-04-14T16:15:49.594Z,38.6
2016-04-14T16:15:59.582Z,39.3
2016-04-14T16:16:09.582Z,39
2016-04-14T16:16:19.566Z,39.3
2016-04-14T16:16:29.550Z,39.4
2016-04-14T16:16:39.566Z,39.8
2016-04-14T16:16:49.535Z,39.9
2016-04-14T16:16:59.522Z,40.5
2016-04-14T16:17:09.522Z,40.6
2016-04-14T16:17:19.507Z,41
2016-04-14T16:17:29.491Z,40.8
2016-04-14T16:17:39.491Z,41.2
2016-04-14T16:17:49.475Z,41.6
2016-04-14T16:17:59.463Z,41.8
2016-04-14T16:18:09.447Z,42.3
2016-04-14T16:18:19.447Z,42.4
2016-04-14T16:18:29.431Z,41.9
2016-04-14T16:18:39.431Z,42.3
2016-04-14T16:18:49.416Z,43.2
2016-04-14T16:18:59.403Z,42.9
2016-04-14T16:19:09.388Z,43.2
2016-04-14T16:19:19.388Z,43.2
2016-04-14T16:19:29.372Z,43.7
2016-04-14T16:19:39.356Z,43.9
2016-04-14T16:19:49.356Z,43.7
2016-04-14T16:19:59.343Z,44
2016-04-14T16:20:09.327Z,44.1
2016-04-14T16:20:19.311Z,44.2
2016-04-14T16:20:29.311Z,44.5
2016-04-14T16:20:39.296Z,44.7
2016-04-14T16:20:49.280Z,44.8
2016-04-14T16:20:59.283Z,45
2016-04-14T16:21:09.283Z,45.2
2016-04-14T16:21:19.252Z,45.3
2016-04-14T16:21:29.252Z,45.3
2016-04-14T16:21:39.252Z,45.5
2016-04-14T16:21:49.236Z,45.6
2016-04-14T16:21:59.224Z,45.6
2016-04-14T16:22:09.208Z,45.7
2016-04-14T16:22:19.192Z,45.8
2016-04-14T16:22:29.192Z,45.8
2016-04-14T16:22:39.177Z,45.6
2016-04-14T16:22:49.161Z,45.8
2016-04-14T16:22:59.148Z,45.5
2016-04-14T16:23:09.163Z,45.7
2016-04-14T16:23:19.132Z,45.7
2016-04-14T16:23:29.132Z,45.7
2016-04-14T16:23:39.116Z,45.7
2016-04-14T16:23:49.101Z,45.6
2016-04-14T16:23:59.104Z,46.2
2016-04-14T16:24:09.088Z,46.1
2016-04-14T16:24:19.072Z,46.6
2016-04-14T16:24:29.072Z,46.4
2016-04-14T16:24:39.057Z,46.7
2016-04-14T16:24:49.041Z,46.6
2016-04-14T16:24:59.028Z,46.5
2016-04-14T16:25:09.028Z,46.7
2016-04-14T16:25:19.012Z,46.9
2016-04-14T16:25:28.996Z,47
2016-04-14T16:25:38.981Z,47.3
2016-04-14T16:25:48.981Z,47.1
2016-04-14T16:25:58.969Z,47.1
2016-04-14T16:26:08.953Z,47.4
2016-04-14T16:26:18.953Z,47.2
2016-04-14T16:26:28.938Z,47.1
2016-04-14T16:26:38.938Z,46.8
2016-04-14T16:26:48.922Z,47.1
2016-04-14T16:26:58.909Z,46.8
2016-04-14T16:27:08.893Z,47
2016-04-14T16:27:18.893Z,47.3
2016-04-14T16:27:28.877Z,47.7
2016-04-14T16:27:38.862Z,47.4
2016-04-14T16:27:48.846Z,47.4
2016-04-14T16:27:58.865Z,47.9
2016-04-14T16:28:08.833Z,47.9
2016-04-14T16:28:18.833Z,47.8
2016-04-14T16:28:28.818Z,47.7
2016-04-14T16:28:38.802Z,47.9
2016-04-14T16:28:48.787Z,48
2016-04-14T16:28:58.789Z,48
2016-04-14T16:29:08.773Z,48
2016-04-14T16:29:18.757Z,48
2016-04-14T16:29:28.757Z,48.3
2016-04-14T16:29:38.742Z,48.1
2016-04-14T16:29:48.726Z,48.2
2016-04-14T16:29:58.713Z,48.7
2016-04-14T16:30:08.713Z,48.6
2016-04-14T16:30:18.698Z,48.9
2016-04-14T16:30:28.682Z,48.7
2016-04-14T16:30:38.667Z,48.7
2016-04-14T16:30:48.667Z,48.7
2016-04-14T16:30:58.654Z,48.9
2016-04-14T16:31:08.638Z,48.4
2016-04-14T16:31:18.638Z,48.4
2016-04-14T16:31:28.623Z,48
2016-04-14T16:31:38.623Z,48
2016-04-14T16:31:48.607Z,47.9
2016-04-14T16:31:58.593Z,47.9
2016-04-14T16:32:08.578Z,48.1
2016-04-14T16:32:18.562Z,47.6
2016-04-14T16:32:28.562Z,47.7
2016-04-14T16:32:38.547Z,48
2016-04-14T16:32:48.531Z,47.6
2016-04-14T16:32:58.534Z,48
2016-04-14T16:33:08.518Z,48
2016-04-14T16:33:18.503Z,48.3
2016-04-14T16:33:28.503Z,48.1
2016-04-14T16:33:38.503Z,48.1
2016-04-14T16:33:48.471Z,47.7
2016-04-14T16:33:58.458Z,48.4
2016-04-14T16:34:08.458Z,47.7
2016-04-14T16:34:18.442Z,47.9
2016-04-14T16:34:28.427Z,47.8
2016-04-14T16:34:38.427Z,48
2016-04-14T16:34:48.411Z,47.7
2016-04-14T16:34:58.398Z,48
2016-04-14T16:35:08.383Z,48.2
2016-04-14T16:35:18.383Z,48.2
2016-04-14T16:35:28.367Z,48.1
2016-04-14T16:35:38.351Z,48.1
2016-04-14T16:35:48.336Z,48.4
2016-04-14T16:35:58.339Z,48.6
2016-04-14T16:36:08.323Z,48.6
2016-04-14T16:36:18.323Z,48.5
2016-04-14T16:36:28.308Z,48
2016-04-14T16:36:38.292Z,48.7
2016-04-14T16:36:48.276Z,48.1
2016-04-14T16:36:58.278Z,48
2016-04-14T16:37:08.263Z,47.9
2016-04-14T16:37:18.247Z,47.7
2016-04-14T16:37:28.231Z,47.7
2016-04-14T16:37:38.231Z,47.7
2016-04-14T16:37:48.216Z,47.7
2016-04-14T16:37:58.203Z,48
2016-04-14T16:38:08.188Z,48.1
2016-04-14T16:38:18.188Z,48
2016-04-14T16:38:28.172Z,47.8
2016-04-14T16:38:38.156Z,48.1
2016-04-14T16:38:48.141Z,47.5
2016-04-14T16:38:58.144Z,47.5
2016-04-14T16:39:08.128Z,47.7
2016-04-14T16:39:18.128Z,47.6
2016-04-14T16:39:28.112Z,47.5
2016-04-14T16:39:38.112Z,47.3
2016-04-14T16:39:48.081Z,47.6
2016-04-14T16:39:58.084Z,47.5
2016-04-14T16:40:08.069Z,47.5
2016-04-14T16:40:18.053Z,47.6
2016-04-14T16:40:28.037Z,47.6
2016-04-14T16:40:38.037Z,47.3
2016-04-14T16:40:48.022Z,47.1
2016-04-14T16:40:58.006Z,47.2
2016-04-14T16:41:08.008Z,46.9
2016-04-14T16:41:17.992Z,46.4
2016-04-14T16:41:27.977Z,46.5
2016-04-14T16:41:37.961Z,46.3
2016-04-14T16:41:47.946Z,46.4
2016-04-14T16:41:57.946Z,46.6
2016-04-14T16:42:07.933Z,46.6
2016-04-14T16:42:17.917Z,46.1
2016-04-14T16:42:27.917Z,45.9
2016-04-14T16:42:37.902Z,45.6
2016-04-14T16:42:47.886Z,45.7
2016-04-14T16:42:57.886Z,45.6
2016-04-14T16:43:07.889Z,45.4
2016-04-14T16:43:17.873Z,45.2
2016-04-14T16:43:27.842Z,45.1
2016-04-14T16:43:37.842Z,44.9
2016-04-14T16:43:47.827Z,44.9
2016-04-14T16:43:57.811Z,44.9
2016-04-14T16:44:07.814Z,44.5
2016-04-14T16:44:17.798Z,44.3
2016-04-14T16:44:27.783Z,44.2
2016-04-14T16:44:37.767Z,43.9
2016-04-14T16:44:47.767Z,43.8
2016-04-14T16:44:57.751Z,43.7
2016-04-14T16:45:07.739Z,43.9
2016-04-14T16:45:17.739Z,43.8
2016-04-14T16:45:27.723Z,43.5
2016-04-14T16:45:37.708Z,43.6
2016-04-14T16:45:47.692Z,43.6
2016-04-14T16:45:57.692Z,43
2016-04-14T16:46:07.678Z,42.8
2016-04-14T16:46:17.663Z,43
2016-04-14T16:46:27.663Z,42.7
2016-04-14T16:46:37.647Z,42.5
2016-04-14T16:46:47.631Z,42
2016-04-14T16:46:57.616Z,42.3
2016-04-14T16:47:07.603Z,42.3
2016-04-14T16:47:17.603Z,42
2016-04-14T16:47:27.588Z,41.8
2016-04-14T16:47:37.588Z,41.5
2016-04-14T16:47:47.556Z,41.3
2016-04-14T16:47:57.556Z,40.8
2016-04-14T16:48:07.558Z,40.9
2016-04-14T16:48:17.527Z,40.5
2016-04-14T16:48:27.527Z,40.6
2016-04-14T16:48:37.511Z,40.5
2016-04-14T16:48:47.496Z,40.6
2016-04-14T16:48:57.496Z,40.5
2016-04-14T16:49:07.483Z,40.2
2016-04-14T16:49:17.468Z,39.8
2016-04-14T16:49:27.452Z,39.7
2016-04-14T16:49:37.452Z,39.3
2016-04-14T16:49:47.436Z,39.3
2016-04-14T16:49:57.421Z,39.1
2016-04-14T16:50:07.407Z,38.8
2016-04-14T16:50:17.407Z,38.8
2016-04-14T16:50:27.391Z,38.9
2016-04-14T16:50:37.391Z,38.7
2016-04-14T16:50:47.376Z,38.5
2016-04-14T16:50:57.360Z,38.3
2016-04-14T16:51:07.348Z,37.9
2016-04-14T16:51:17.348Z,37.4
2016-04-14T16:51:27.332Z,37.1
2016-04-14T16:51:37.316Z,37
2016-04-14T16:51:47.316Z,37.3
2016-04-14T16:51:57.301Z,36.9
2016-04-14T16:52:07.288Z,36.6
2016-04-14T16:52:17.272Z,36.4
2016-04-14T16:52:27.272Z,36.2
2016-04-14T16:52:37.757Z,36.2
2016-04-14T16:52:47.241Z,36
2016-04-14T16:52:57.241Z,35.9
2016-04-14T16:53:07.229Z,35.9
2016-04-14T16:53:17.213Z,35.9
2016-04-14T16:53:27.197Z,35.1
2016-04-14T16:53:37.197Z,35.4
2016-04-14T16:53:47.182Z,35
2016-04-14T16:53:57.166Z,35.1
2016-04-14T16:54:07.169Z,34.7
2016-04-14T16:54:17.153Z,34.7
2016-04-14T16:54:27.138Z,34.9
2016-04-14T16:54:37.122Z,34.9
2016-04-14T16:54:47.122Z,35
2016-04-14T16:54:57.107Z,34.9
2016-04-14T16:55:07.094Z,34.9
2016-04-14T16:55:17.094Z,34.8
2016-04-14T16:55:27.078Z,35.1
2016-04-14T16:55:37.063Z,35.1
2016-04-14T16:55:47.063Z,35
2016-04-14T16:55:57.047Z,35
2016-04-14T16:56:07.033Z,35
2016-04-14T16:56:17.033Z,35.1
2016-04-14T16:56:27.018Z,35.3
2016-04-14T16:56:37.002Z,35
2016-04-14T16:56:46.987Z,35
2016-04-14T16:56:56.987Z,35.4
2016-04-14T16:57:06.974Z,35.3
2016-04-14T16:57:16.958Z,35.4
2016-04-14T16:57:26.974Z,35.2
2016-04-14T16:57:36.943Z,35.3
2016-04-14T16:57:46.927Z,35.2
2016-04-14T16:57:56.927Z,35.3
2016-04-14T16:58:06.929Z,35.2
2016-04-14T16:58:16.913Z,35.7
2016-04-14T16:58:26.882Z,35.6
2016-04-14T16:58:36.882Z,36.2
2016-04-14T16:58:46.867Z,35.8
2016-04-14T16:58:56.851Z,35.8
2016-04-14T16:59:06.854Z,36
2016-04-14T16:59:16.838Z,35.8
2016-04-14T16:59:26.823Z,36
2016-04-14T16:59:36.823Z,35.8
2016-04-14T16:59:47.260Z,35.9
2016-04-14T16:59:56.791Z,36
2016-04-14T17:00:06.778Z,36.2
2016-04-14T17:00:16.778Z,35.8
2016-04-14T17:00:26.778Z,35.9
2016-04-14T17:00:36.747Z,36.2
2016-04-14T17:00:46.731Z,36.1
2016-04-14T17:00:56.731Z,36.1
2016-04-14T17:01:06.718Z,36.1
2016-04-14T17:01:16.718Z,36.1
2016-04-14T17:01:26.703Z,36.2
2016-04-14T17:01:36.687Z,36.1
2016-04-14T17:01:46.671Z,35.9
2016-04-14T17:01:56.671Z,36.5
2016-04-14T17:02:06.674Z,36.2
2016-04-14T17:02:16.706Z,36.2
2016-04-14T17:02:26.643Z,36
2016-04-14T17:02:36.924Z,36
2016-04-14T17:02:46.612Z,36.2
2016-04-14T17:02:56.628Z,36.3
2016-04-14T17:03:06.599Z,36.5
2016-04-14T17:03:16.584Z,36.6
2016-04-14T17:03:26.584Z,36.6
2016-04-14T17:03:36.568Z,36.5
2016-04-14T17:03:46.552Z,36.6
2016-04-14T17:03:56.552Z,36.7
2016-04-14T17:04:06.540Z,36.1
2016-04-14T17:04:16.524Z,36.1
2016-04-14T17:04:26.524Z,36.2
2016-04-14T17:04:36.509Z,36.6
2016-04-14T17:04:46.493Z,36.5
2016-04-14T17:04:56.477Z,36.5
2016-04-14T17:05:06.479Z,36.2
2016-04-14T17:05:16.464Z,36
2016-04-14T17:05:26.448Z,36.5
2016-04-14T17:05:36.432Z,35.9
2016-04-14T17:05:46.432Z,35.9
2016-04-14T17:05:56.417Z,35.7
2016-04-14T17:06:06.404Z,35.1
2016-04-14T17:06:16.404Z,35.3
2016-04-14T17:06:26.389Z,35.2
2016-04-14T17:06:36.373Z,35.1
2016-04-14T17:06:46.373Z,35.1
2016-04-14T17:06:56.357Z,35.1
2016-04-14T17:07:06.344Z,34.9
2016-04-14T17:07:16.344Z,35
2016-04-14T17:07:26.328Z,34.9
2016-04-14T17:07:36.312Z,34.9
2016-04-14T17:07:46.297Z,34.9
2016-04-14T17:07:56.297Z,35.2
2016-04-14T17:08:06.284Z,35.2
2016-04-14T17:08:16.269Z,35
2016-04-14T17:08:26.269Z,35.4
2016-04-14T17:08:36.253Z,35.3
2016-04-14T17:08:46.237Z,35.4
2016-04-14T17:08:56.237Z,35.4
2016-04-14T17:09:06.225Z,35.4
2016-04-14T17:09:16.225Z,35.7
2016-04-14T17:09:26.209Z,35.7
2016-04-14T17:09:36.193Z,35.8
2016-04-14T17:09:46.193Z,35.9
2016-04-14T17:09:56.178Z,36.1
2016-04-14T17:10:06.165Z,36.2
2016-04-14T17:10:16.165Z,35.8
2016-04-14T17:10:26.150Z,35.9
2016-04-14T17:10:36.134Z,36
2016-04-14T17:10:46.118Z,36
2016-04-14T17:10:56.118Z,35.9
2016-04-14T17:11:06.106Z,36
2016-04-14T17:11:16.090Z,36.2
2016-04-14T17:11:26.074Z,36.1
2016-04-14T17:11:36.074Z,36.5